sensor_id;sensor_type;location;lat;lon;timestamp;pressure;altitude;pressure_sealevel;temperature;humidity
77537;BME280;67783;51.656;16.106;2024-03-23T00:55:35;100908.35;;;13.82;66.54
77537;BME280;67783;51.656;16.106;2024-03-23T00:58:37;100898.66;;;13.79;66.16
77537;BME280;67783;51.656;16.106;2024-03-23T01:01:38;100889.38;;;13.72;66.61
77537;BME280;67783;51.656;16.106;2024-03-23T01:04:44;100884.52;;;13.66;68.56
77537;BME280;67783;51.656;16.106;2024-03-23T01:07:46;100882.91;;;13.64;66.76
77537;BME280;67783;51.656;16.106;2024-03-23T01:10:54;100880.12;;;13.54;67.62
77537;BME280;67783;51.656;16.106;2024-03-23T01:13:56;100875.74;;;13.53;66.77
77537;BME280;67783;51.656;16.106;2024-03-23T01:16:57;100874.13;;;13.51;67.18
77537;BME280;67783;51.656;16.106;2024-03-23T01:20:06;100869.27;;;13.45;69.02
77537;BME280;67783;51.656;16.106;2024-03-23T01:23:07;100869.65;;;13.40;67.04
77537;BME280;67783;51.656;16.106;2024-03-23T01:26:09;100867.31;;;13.35;67.76
77537;BME280;67783;51.656;16.106;2024-03-23T01:29:10;100868.88;;;13.38;66.93
77537;BME280;67783;51.656;16.106;2024-03-23T01:32:12;100861.94;;;13.35;67.28
77537;BME280;67783;51.656;16.106;2024-03-23T01:35:13;100853.96;;;13.34;66.94
77537;BME280;67783;51.656;16.106;2024-03-23T01:38:15;100850.60;;;13.21;67.36
77537;BME280;67783;51.656;16.106;2024-03-23T01:41:20;100840.76;;;13.09;69.69
77537;BME280;67783;51.656;16.106;2024-03-23T01:44:22;100837.46;;;13.05;67.48
77537;BME280;67783;51.656;16.106;2024-03-23T01:47:23;100838.09;;;12.98;68.38
77537;BME280;67783;51.656;16.106;2024-03-23T01:50:25;100848.13;;;12.95;67.56
77537;BME280;67783;51.656;16.106;2024-03-23T01:53:28;100844.95;;;12.90;68.08
77537;BME280;67783;51.656;16.106;2024-03-23T01:56:31;100845.92;;;12.89;67.58
77537;BME280;67783;51.656;16.106;2024-03-23T01:59:36;100832.72;;;12.86;67.85
77537;BME280;67783;51.656;16.106;2024-03-23T02:02:46;100823.91;;;12.84;69.39
77537;BME280;67783;51.656;16.106;2024-03-23T02:05:48;100825.38;;;12.88;67.50
77537;BME280;67783;51.656;16.106;2024-03-23T02:08:50;100827.95;;;12.90;67.94
77537;BME280;67783;51.656;16.106;2024-03-23T02:11:51;100818.54;;;12.95;67.33
77537;BME280;67783;51.656;16.106;2024-03-23T02:14:52;100817.53;;;12.96;67.58
77537;BME280;67783;51.656;16.106;2024-03-23T02:18:01;100818.28;;;12.99;68.97
77537;BME280;67783;51.656;16.106;2024-03-23T02:21:03;100818.89;;;13.02;67.30
77537;BME280;67783;51.656;16.106;2024-03-23T02:24:05;100821.57;;;13.02;67.84
77537;BME280;67783;51.656;16.106;2024-03-23T02:27:08;100804.09;;;13.08;67.08
77537;BME280;67783;51.656;16.106;2024-03-23T02:30:09;100809.70;;;13.05;67.40
77537;BME280;67783;51.656;16.106;2024-03-23T02:33:21;100795.27;;;13.06;68.45
77537;BME280;67783;51.656;16.106;2024-03-23T02:36:24;100788.80;;;13.08;67.07
77537;BME280;67783;51.656;16.106;2024-03-23T02:39:26;100778.03;;;13.08;67.51
77537;BME280;67783;51.656;16.106;2024-03-23T02:42:27;100778.66;;;13.12;67.00
77537;BME280;67783;51.656;16.106;2024-03-23T02:45:28;100779.52;;;13.12;67.20
77537;BME280;67783;51.656;16.106;2024-03-23T02:48:30;100765.91;;;13.14;67.08
77537;BME280;67783;51.656;16.106;2024-03-23T02:51:31;100761.65;;;13.11;67.09
77537;BME280;67783;51.656;16.106;2024-03-23T02:54:36;100753.66;;;13.10;68.24
77537;BME280;67783;51.656;16.106;2024-03-23T02:57:38;100741.84;;;13.12;66.95
77537;BME280;67783;51.656;16.106;2024-03-23T03:00:39;100753.66;;;13.10;67.43
77537;BME280;67783;51.656;16.106;2024-03-23T03:03:41;100755.41;;;13.11;66.87
77537;BME280;67783;51.656;16.106;2024-03-23T03:06:47;100756.34;;;13.10;67.13
77537;BME280;67783;51.656;16.106;2024-03-23T03:09:57;100754.55;;;13.10;67.96
77537;BME280;67783;51.656;16.106;2024-03-23T03:12:58;100733.02;;;13.10;66.91
77537;BME280;67783;51.656;16.106;2024-03-23T03:15:59;100722.98;;;13.01;67.65
77537;BME280;67783;51.656;16.106;2024-03-23T03:19:01;100717.73;;;13.00;67.12
77537;BME280;67783;51.656;16.106;2024-03-23T03:22:02;100719.95;;;12.94;67.42
77537;BME280;67783;51.656;16.106;2024-03-23T03:25:06;100716.02;;;12.99;67.00
77537;BME280;67783;51.656;16.106;2024-03-23T03:28:08;100714.19;;;12.99;67.08
77537;BME280;67783;51.656;16.106;2024-03-23T03:31:13;100725.80;;;13.00;67.89
77537;BME280;67783;51.656;16.106;2024-03-23T03:34:14;100717.36;;;13.04;66.83
77537;BME280;67783;51.656;16.106;2024-03-23T03:37:16;100713.06;;;13.02;67.19
77537;BME280;67783;51.656;16.106;2024-03-23T03:40:17;100709.14;;;13.06;66.72
77537;BME280;67783;51.656;16.106;2024-03-23T03:43:18;100706.60;;;13.04;66.87
77537;BME280;67783;51.656;16.106;2024-03-23T03:46:19;100710.86;;;13.07;66.57
77537;BME280;67783;51.656;16.106;2024-03-23T03:49:21;100699.35;;;13.05;66.69
77537;BME280;67783;51.656;16.106;2024-03-23T03:52:28;100701.60;;;13.00;67.47
77537;BME280;67783;51.656;16.106;2024-03-23T03:55:29;100696.32;;;12.98;66.59
77537;BME280;67783;51.656;16.106;2024-03-23T03:58:30;100702.20;;;12.92;67.03
77537;BME280;67783;51.656;16.106;2024-03-23T04:01:32;100704.30;;;12.88;66.62
77537;BME280;67783;51.656;16.106;2024-03-23T04:04:33;100700.15;;;12.84;66.93
77537;BME280;67783;51.656;16.106;2024-03-23T04:07:35;100698.20;;;12.86;66.58
77537;BME280;67783;51.656;16.106;2024-03-23T04:10:36;100694.77;;;12.84;66.72
77537;BME280;67783;51.656;16.106;2024-03-23T04:13:43;100693.91;;;12.84;67.43
77537;BME280;67783;51.656;16.106;2024-03-23T04:16:44;100678.40;;;12.87;66.52
77537;BME280;67783;51.656;16.106;2024-03-23T04:19:46;100671.29;;;12.86;66.84
77537;BME280;67783;51.656;16.106;2024-03-23T04:22:49;100680.94;;;12.89;66.45
77537;BME280;67783;51.656;16.106;2024-03-23T04:25:51;100699.77;;;12.89;66.70
77537;BME280;67783;51.656;16.106;2024-03-23T04:29:03;100704.06;;;12.91;67.40
77537;BME280;67783;51.656;16.106;2024-03-23T04:32:05;100702.09;;;12.93;66.57
77537;BME280;67783;51.656;16.106;2024-03-23T04:35:07;100700.63;;;12.89;67.02
77537;BME280;67783;51.656;16.106;2024-03-23T04:38:12;100688.90;;;12.90;66.66
77537;BME280;67783;51.656;16.106;2024-03-23T04:41:13;100669.46;;;12.87;67.00
77537;BME280;67783;51.656;16.106;2024-03-23T04:44:23;100673.01;;;12.87;68.15
77537;BME280;67783;51.656;16.106;2024-03-23T04:47:25;100677.98;;;12.92;66.88
77537;BME280;67783;51.656;16.106;2024-03-23T04:50:27;100662.70;;;12.92;67.39
77537;BME280;67783;51.656;16.106;2024-03-23T04:53:28;100657.20;;;12.94;66.88
77537;BME280;67783;51.656;16.106;2024-03-23T04:56:30;100663.70;;;12.91;67.13
77537;BME280;67783;51.656;16.106;2024-03-23T04:59:32;100660.01;;;12.92;66.81
77537;BME280;67783;51.656;16.106;2024-03-23T05:02:34;100653.92;;;12.90;67.00
77537;BME280;67783;51.656;16.106;2024-03-23T05:05:39;100644.13;;;12.89;67.99
77537;BME280;67783;51.656;16.106;2024-03-23T05:08:40;100651.34;;;12.89;66.89
77537;BME280;67783;51.656;16.106;2024-03-23T05:11:42;100643.65;;;12.84;67.41
77537;BME280;67783;51.656;16.106;2024-03-23T05:14:43;100646.34;;;12.84;66.96
77537;BME280;67783;51.656;16.106;2024-03-23T05:17:44;100658.22;;;12.82;67.21
77537;BME280;67783;51.656;16.106;2024-03-23T05:20:46;100654.30;;;12.86;66.88
77537;BME280;67783;51.656;16.106;2024-03-23T05:23:47;100653.43;;;12.85;67.03
77537;BME280;67783;51.656;16.106;2024-03-23T05:26:54;100646.49;;;12.83;68.25
77537;BME280;67783;51.656;16.106;2024-03-23T05:29:55;100630.20;;;12.84;66.85
77537;BME280;67783;51.656;16.106;2024-03-23T05:32:57;100634.72;;;12.84;67.52
77537;BME280;67783;51.656;16.106;2024-03-23T05:36:00;100625.41;;;12.88;67.01
77537;BME280;67783;51.656;16.106;2024-03-23T05:39:01;100626.27;;;12.88;67.27
77537;BME280;67783;51.656;16.106;2024-03-23T05:42:03;100625.03;;;12.92;67.00
77537;BME280;67783;51.656;16.106;2024-03-23T05:45:05;100620.66;;;12.91;67.25
77537;BME280;67783;51.656;16.106;2024-03-23T05:48:09;100607.91;;;12.93;68.31
77537;BME280;67783;51.656;16.106;2024-03-23T05:51:10;100607.41;;;13.00;67.12
77537;BME280;67783;51.656;16.106;2024-03-23T05:54:13;100604.57;;;13.01;67.50
77537;BME280;67783;51.656;16.106;2024-03-23T05:57:15;100592.44;;;13.07;67.00
77537;BME280;67783;51.656;16.106;2024-03-23T06:00:17;100578.98;;;13.07;67.30
77537;BME280;67783;51.656;16.106;2024-03-23T06:03:19;100575.16;;;13.09;67.06
77537;BME280;67783;51.656;16.106;2024-03-23T06:06:20;100551.95;;;13.08;67.22
77537;BME280;67783;51.656;16.106;2024-03-23T06:09:25;100544.35;;;13.13;68.02
77537;BME280;67783;51.656;16.106;2024-03-23T06:12:26;100548.63;;;13.16;66.97
77537;BME280;67783;51.656;16.106;2024-03-23T06:15:28;100562.09;;;13.16;67.33
77537;BME280;67783;51.656;16.106;2024-03-23T06:18:32;100558.61;;;13.25;66.81
77537;BME280;67783;51.656;16.106;2024-03-23T06:21:34;100561.51;;;13.33;66.90
77537;BME280;67783;51.656;16.106;2024-03-23T06:24:46;100558.60;;;13.46;67.49
77537;BME280;67783;51.656;16.106;2024-03-23T06:27:47;100526.13;;;13.47;66.42
77537;BME280;67783;51.656;16.106;2024-03-23T06:30:49;100540.68;;;13.65;67.02
77537;BME280;67783;51.656;16.106;2024-03-23T06:33:50;100534.20;;;13.77;66.54
77537;BME280;67783;51.656;16.106;2024-03-23T06:36:51;100536.21;;;13.85;66.74
77537;BME280;67783;51.656;16.106;2024-03-23T06:39:53;100527.16;;;13.96;66.34
77537;BME280;67783;51.656;16.106;2024-03-23T06:42:54;100519.26;;;14.04;66.47
77537;BME280;67783;51.656;16.106;2024-03-23T06:46:02;100517.55;;;14.12;67.41
77537;BME280;67783;51.656;16.106;2024-03-23T06:49:05;100507.52;;;14.24;66.21
77537;BME280;67783;51.656;16.106;2024-03-23T06:52:07;100506.24;;;14.28;66.35
77537;BME280;67783;51.656;16.106;2024-03-23T06:55:09;100490.77;;;14.30;66.01
77537;BME280;67783;51.656;16.106;2024-03-23T06:58:10;100479.84;;;14.22;66.38
77537;BME280;67783;51.656;16.106;2024-03-23T07:01:21;100466.35;;;14.22;66.86
77537;BME280;67783;51.656;16.106;2024-03-23T07:04:22;100465.08;;;14.26;66.31
77537;BME280;67783;51.656;16.106;2024-03-23T07:07:23;100461.10;;;14.30;66.60
77537;BME280;67783;51.656;16.106;2024-03-23T07:10:26;100444.11;;;14.39;66.19
77537;BME280;67783;51.656;16.106;2024-03-23T07:13:27;100435.89;;;14.41;66.42
77537;BME280;67783;51.656;16.106;2024-03-23T07:16:29;100433.16;;;14.50;66.15
77537;BME280;67783;51.656;16.106;2024-03-23T07:19:30;100434.58;;;14.54;66.19
77537;BME280;67783;51.656;16.106;2024-03-23T07:22:36;100440.84;;;14.64;66.55
77537;BME280;67783;51.656;16.106;2024-03-23T07:25:37;100436.98;;;14.76;65.80
77537;BME280;67783;51.656;16.106;2024-03-23T07:28:39;100444.77;;;14.89;65.64
77537;BME280;67783;51.656;16.106;2024-03-23T07:31:45;100443.15;;;15.06;65.26
77537;BME280;67783;51.656;16.106;2024-03-23T07:34:47;100426.66;;;15.09;65.14
77537;BME280;67783;51.656;16.106;2024-03-23T07:37:56;100387.59;;;15.03;65.48
77537;BME280;67783;51.656;16.106;2024-03-23T07:41:07;100396.55;;;15.04;65.47
77537;BME280;67783;51.656;16.106;2024-03-23T07:44:09;100405.77;;;15.11;65.46
77537;BME280;67783;51.656;16.106;2024-03-23T07:47:11;100410.54;;;15.27;65.21
77537;BME280;67783;51.656;16.106;2024-03-23T07:50:13;100397.10;;;15.44;64.80
77537;BME280;67783;51.656;16.106;2024-03-23T07:53:18;100380.94;;;15.62;64.08
77537;BME280;67783;51.656;16.106;2024-03-23T07:56:19;100375.24;;;15.83;64.07
77537;BME280;67783;51.656;16.106;2024-03-23T07:59:24;100357.63;;;15.79;63.80
77537;BME280;67783;51.656;16.106;2024-03-23T08:02:26;100360.96;;;15.90;63.91
77537;BME280;67783;51.656;16.106;2024-03-23T08:05:27;100339.80;;;16.03;63.68
77537;BME280;67783;51.656;16.106;2024-03-23T08:08:39;100341.82;;;16.19;62.95
77537;BME280;67783;51.656;16.106;2024-03-23T08:11:41;100347.56;;;16.42;63.08
77537;BME280;67783;51.656;16.106;2024-03-23T08:14:46;100327.97;;;16.66;62.83
77537;BME280;67783;51.656;16.106;2024-03-23T08:17:49;100317.45;;;16.88;62.52
77537;BME280;67783;51.656;16.106;2024-03-23T08:21:00;100312.23;;;16.95;62.11
77537;BME280;67783;51.656;16.106;2024-03-23T08:24:02;100293.05;;;16.80;60.64
77537;BME280;67783;51.656;16.106;2024-03-23T08:27:04;100321.65;;;16.83;62.04
77537;BME280;67783;51.656;16.106;2024-03-23T08:30:07;100319.89;;;16.74;61.82
77537;BME280;67783;51.656;16.106;2024-03-23T08:33:08;100312.10;;;16.71;62.13
77537;BME280;67783;51.656;16.106;2024-03-23T08:36:10;100302.94;;;16.64;62.09
77537;BME280;67783;51.656;16.106;2024-03-23T08:39:19;100306.55;;;16.54;61.24
77537;BME280;67783;51.656;16.106;2024-03-23T08:42:21;100319.71;;;16.49;62.26
77537;BME280;67783;51.656;16.106;2024-03-23T08:45:23;100319.98;;;16.38;62.13
77537;BME280;67783;51.656;16.106;2024-03-23T08:48:25;100314.34;;;16.32;62.39
77537;BME280;67783;51.656;16.106;2024-03-23T08:51:26;100313.45;;;16.23;62.45
77537;BME280;67783;51.656;16.106;2024-03-23T08:54:28;100304.48;;;16.23;62.50
77537;BME280;67783;51.656;16.106;2024-03-23T08:57:32;100305.81;;;16.19;62.66
77537;BME280;67783;51.656;16.106;2024-03-23T09:00:36;100300.87;;;16.14;62.96
77537;BME280;67783;51.656;16.106;2024-03-23T09:03:38;100306.09;;;16.15;62.81
77537;BME280;67783;51.656;16.106;2024-03-23T09:06:39;100296.93;;;16.08;63.02
77537;BME280;67783;51.656;16.106;2024-03-23T09:09:43;100302.19;;;16.10;62.95
77537;BME280;67783;51.656;16.106;2024-03-23T09:12:44;100294.55;;;16.05;63.12
77537;BME280;67783;51.656;16.106;2024-03-23T09:15:48;100292.98;;;16.03;63.10
77537;BME280;67783;51.656;16.106;2024-03-23T09:18:49;100283.13;;;15.94;63.13
77537;BME280;67783;51.656;16.106;2024-03-23T09:21:54;100298.64;;;15.92;63.31
77537;BME280;67783;51.656;16.106;2024-03-23T09:24:55;100276.63;;;15.87;63.30
77537;BME280;67783;51.656;16.106;2024-03-23T09:27:57;100272.86;;;15.80;63.62
77537;BME280;67783;51.656;16.106;2024-03-23T09:31:06;100279.26;;;15.79;63.47
77537;BME280;67783;51.656;16.106;2024-03-23T09:34:08;100265.68;;;15.70;63.84
77537;BME280;67783;51.656;16.106;2024-03-23T09:37:15;100254.34;;;15.67;64.48
77537;BME280;67783;51.656;16.106;2024-03-23T09:40:16;100244.30;;;15.59;64.02
77537;BME280;67783;51.656;16.106;2024-03-23T09:43:17;100244.38;;;15.50;64.60
77537;BME280;67783;51.656;16.106;2024-03-23T09:46:19;100232.85;;;15.48;64.35
77537;BME280;67783;51.656;16.106;2024-03-23T09:49:21;100232.24;;;15.36;64.73
77537;BME280;67783;51.656;16.106;2024-03-23T09:52:22;100221.04;;;15.31;64.58
77537;BME280;67783;51.656;16.106;2024-03-23T09:55:23;100213.45;;;15.17;65.33
77537;BME280;67783;51.656;16.106;2024-03-23T09:58:29;100188.75;;;15.12;66.32
77537;BME280;67783;51.656;16.106;2024-03-23T10:01:33;100180.06;;;15.18;65.09
77537;BME280;67783;51.656;16.106;2024-03-23T10:04:39;100179.07;;;15.19;65.72
77537;BME280;67783;51.656;16.106;2024-03-23T10:07:40;100169.66;;;15.23;65.09
77537;BME280;67783;51.656;16.106;2024-03-23T10:10:42;100178.61;;;15.23;65.40
77537;BME280;67783;51.656;16.106;2024-03-23T10:13:50;100175.05;;;15.23;66.12
77537;BME280;67783;51.656;16.106;2024-03-23T10:16:51;100154.52;;;15.30;65.37
77537;BME280;67783;51.656;16.106;2024-03-23T10:19:55;100150.51;;;15.34;65.69
77537;BME280;67783;51.656;16.106;2024-03-23T10:22:57;100139.30;;;15.47;65.07
77537;BME280;67783;51.656;16.106;2024-03-23T10:29:12;100116.08;;;15.54;65.79
77537;BME280;67783;51.656;16.106;2024-03-23T10:32:15;100106.37;;;15.61;65.00
77537;BME280;67783;51.656;16.106;2024-03-23T10:35:18;100105.18;;;15.63;65.24
77537;BME280;67783;51.656;16.106;2024-03-23T10:38:22;100113.82;;;15.67;64.94
77537;BME280;67783;51.656;16.106;2024-03-23T10:41:28;100106.71;;;15.66;65.08
77537;BME280;67783;51.656;16.106;2024-03-23T10:44:31;100101.48;;;15.64;65.33
77537;BME280;67783;51.656;16.106;2024-03-23T10:47:35;100097.93;;;15.64;65.24
77537;BME280;67783;51.656;16.106;2024-03-23T10:50:37;100090.88;;;15.71;65.58
77537;BME280;67783;51.656;16.106;2024-03-23T10:53:39;100096.75;;;15.66;65.38
77537;BME280;67783;51.656;16.106;2024-03-23T10:56:41;100074.46;;;15.64;65.55
77537;BME280;67783;51.656;16.106;2024-03-23T10:59:52;100081.59;;;15.74;65.82
77537;BME280;67783;51.656;16.106;2024-03-23T11:02:53;100078.30;;;15.88;65.11
77537;BME280;67783;51.656;16.106;2024-03-23T11:05:55;100073.70;;;15.80;65.52
77537;BME280;67783;51.656;16.106;2024-03-23T11:08:57;100106.99;;;15.81;65.10
77537;BME280;67783;51.656;16.106;2024-03-23T11:11:58;100096.32;;;15.79;65.39
77537;BME280;67783;51.656;16.106;2024-03-23T11:15:12;100090.77;;;15.81;66.07
77537;BME280;67783;51.656;16.106;2024-03-23T11:18:22;100103.63;;;15.87;65.23
77537;BME280;67783;51.656;16.106;2024-03-23T11:24:39;100094.14;;;15.83;66.44
77537;BME280;67783;51.656;16.106;2024-03-23T11:27:41;100064.33;;;15.66;66.29
77537;BME280;67783;51.656;16.106;2024-03-23T11:30:42;100065.31;;;15.40;66.39
77537;BME280;67783;51.656;16.106;2024-03-23T11:33:43;100062.15;;;15.44;66.19
77537;BME280;67783;51.656;16.106;2024-03-23T11:36:46;100060.38;;;15.53;66.49
77537;BME280;67783;51.656;16.106;2024-03-23T11:39:47;100054.70;;;15.64;66.29
77537;BME280;67783;51.656;16.106;2024-03-23T11:42:55;100052.52;;;15.67;66.76
77537;BME280;67783;51.656;16.106;2024-03-23T11:45:57;100056.48;;;15.81;67.52
77537;BME280;67783;51.656;16.106;2024-03-23T11:49:03;100052.20;;;16.04;66.10
77537;BME280;67783;51.656;16.106;2024-03-23T11:52:05;100047.55;;;16.23;65.99
77537;BME280;67783;51.656;16.106;2024-03-23T11:55:07;100048.09;;;16.34;65.56
77537;BME280;67783;51.656;16.106;2024-03-23T11:58:10;100036.55;;;16.24;65.88
77537;BME280;67783;51.656;16.106;2024-03-23T12:01:15;100030.10;;;16.17;66.53
77537;BME280;67783;51.656;16.106;2024-03-23T12:04:25;100028.92;;;16.20;65.88
77537;BME280;67783;51.656;16.106;2024-03-23T12:07:27;100036.91;;;16.29;65.91
77537;BME280;67783;51.656;16.106;2024-03-23T12:10:28;100035.43;;;16.43;65.71
77537;BME280;67783;51.656;16.106;2024-03-23T12:13:30;100022.78;;;16.51;65.06
77537;BME280;67783;51.656;16.106;2024-03-23T12:16:36;100016.17;;;16.54;63.99
77537;BME280;67783;51.656;16.106;2024-03-23T12:19:38;99990.96;;;16.53;63.81
77537;BME280;67783;51.656;16.106;2024-03-23T12:22:40;99997.35;;;16.36;63.10
77537;BME280;67783;51.656;16.106;2024-03-23T12:25:41;99991.05;;;16.20;63.58
77537;BME280;67783;51.656;16.106;2024-03-23T12:28:42;99997.78;;;16.07;63.14
77537;BME280;67783;51.656;16.106;2024-03-23T12:31:44;100027.30;;;15.93;62.80
77537;BME280;67783;51.656;16.106;2024-03-23T12:34:45;100084.10;;;15.49;60.51
77537;BME280;67783;51.656;16.106;2024-03-23T12:37:50;100099.67;;;15.12;59.84
77537;BME280;67783;51.656;16.106;2024-03-23T12:40:52;100147.79;;;14.81;61.11
77537;BME280;67783;51.656;16.106;2024-03-23T12:43:53;100193.45;;;14.38;61.00
77537;BME280;67783;51.656;16.106;2024-03-23T12:46:55;100204.03;;;14.12;61.92
77537;BME280;67783;51.656;16.106;2024-03-23T12:49:56;100201.54;;;13.81;61.68
77537;BME280;67783;51.656;16.106;2024-03-23T12:52:58;100216.03;;;13.61;61.92
77537;BME280;67783;51.656;16.106;2024-03-23T12:56:00;100228.22;;;13.36;61.16
77537;BME280;67783;51.656;16.106;2024-03-23T12:59:05;100278.55;;;13.06;60.10
77537;BME280;67783;51.656;16.106;2024-03-23T13:02:06;100286.98;;;12.82;61.80
77537;BME280;67783;51.656;16.106;2024-03-23T13:05:08;100292.54;;;12.60;61.80
77537;BME280;67783;51.656;16.106;2024-03-23T13:08:10;100320.20;;;12.41;62.08
77537;BME280;67783;51.656;16.106;2024-03-23T13:11:12;100321.11;;;12.10;61.83
77537;BME280;67783;51.656;16.106;2024-03-23T13:14:25;100341.61;;;11.90;60.91
77537;BME280;67783;51.656;16.106;2024-03-23T13:17:28;100365.56;;;11.82;62.28
77537;BME280;67783;51.656;16.106;2024-03-23T13:20:29;100370.59;;;11.64;62.23
77537;BME280;67783;51.656;16.106;2024-03-23T13:23:31;100392.85;;;11.44;62.31
77537;BME280;67783;51.656;16.106;2024-03-23T13:26:36;100387.76;;;11.19;62.11
77537;BME280;67783;51.656;16.106;2024-03-23T13:29:46;100400.47;;;11.05;61.30
77537;BME280;67783;51.656;16.106;2024-03-23T13:32:48;100412.17;;;11.04;61.94
77537;BME280;67783;51.656;16.106;2024-03-23T13:35:53;100427.41;;;10.93;61.99
77537;BME280;67783;51.656;16.106;2024-03-23T13:38:56;100454.34;;;10.91;62.35
77537;BME280;67783;51.656;16.106;2024-03-23T13:41:57;100460.41;;;10.82;62.64
77537;BME280;67783;51.656;16.106;2024-03-23T13:45:07;100440.16;;;10.78;62.02
77537;BME280;67783;51.656;16.106;2024-03-23T13:48:12;100472.84;;;10.83;62.42
77537;BME280;67783;51.656;16.106;2024-03-23T13:51:14;100487.20;;;10.71;62.62
77537;BME280;67783;51.656;16.106;2024-03-23T13:54:15;100486.19;;;10.61;62.67
77537;BME280;67783;51.656;16.106;2024-03-23T13:57:17;100483.82;;;10.45;62.73
77537;BME280;67783;51.656;16.106;2024-03-23T14:00:27;100499.11;;;10.32;62.05
77537;BME280;67783;51.656;16.106;2024-03-23T14:03:29;100515.25;;;10.19;62.58
77537;BME280;67783;51.656;16.106;2024-03-23T14:06:31;100542.04;;;10.07;62.59
77537;BME280;67783;51.656;16.106;2024-03-23T14:09:32;100554.71;;;10.05;62.73
77537;BME280;67783;51.656;16.106;2024-03-23T14:12:34;100566.94;;;9.96;62.89
77537;BME280;67783;51.656;16.106;2024-03-23T14:15:35;100587.10;;;9.89;62.84
77537;BME280;67783;51.656;16.106;2024-03-23T14:18:40;100597.51;;;9.81;63.18
77537;BME280;67783;51.656;16.106;2024-03-23T14:21:45;100612.91;;;9.65;63.08
77537;BME280;67783;51.656;16.106;2024-03-23T14:24:47;100623.74;;;9.63;63.21
77537;BME280;67783;51.656;16.106;2024-03-23T14:27:48;100634.23;;;9.54;63.48
77537;BME280;67783;51.656;16.106;2024-03-23T14:30:51;100636.90;;;9.54;63.16
77537;BME280;67783;51.656;16.106;2024-03-23T14:33:52;100623.96;;;9.48;63.13
77537;BME280;67783;51.656;16.106;2024-03-23T14:36:54;100620.30;;;9.49;62.96
77537;BME280;67783;51.656;16.106;2024-03-23T14:39:56;100618.62;;;9.48;62.81
77537;BME280;67783;51.656;16.106;2024-03-23T14:43:00;100631.68;;;9.52;62.59
77537;BME280;67783;51.656;16.106;2024-03-23T14:46:08;100623.11;;;9.60;62.81
77537;BME280;67783;51.656;16.106;2024-03-23T14:49:14;100609.18;;;9.67;62.72
77537;BME280;67783;51.656;16.106;2024-03-23T14:52:27;100617.53;;;9.76;62.11
77537;BME280;67783;51.656;16.106;2024-03-23T14:55:28;100644.71;;;9.82;61.95
77537;BME280;67783;51.656;16.106;2024-03-23T14:58:30;100646.88;;;9.77;61.62
77537;BME280;67783;51.656;16.106;2024-03-23T15:01:31;100645.34;;;9.86;62.01
77537;BME280;67783;51.656;16.106;2024-03-23T15:04:34;100665.16;;;9.83;61.87
77537;BME280;67783;51.656;16.106;2024-03-23T15:07:36;100671.80;;;9.78;61.83
77537;BME280;67783;51.656;16.106;2024-03-23T15:10:39;100675.77;;;9.59;61.78
77537;BME280;67783;51.656;16.106;2024-03-23T15:13:44;100693.32;;;9.51;61.67
77537;BME280;67783;51.656;16.106;2024-03-23T15:16:45;100675.85;;;9.45;62.22
77537;BME280;67783;51.656;16.106;2024-03-23T15:19:50;100686.77;;;9.42;62.22
77537;BME280;67783;51.656;16.106;2024-03-23T15:22:51;100682.70;;;9.37;62.39
77537;BME280;67783;51.656;16.106;2024-03-23T15:25:56;100690.84;;;9.35;62.24
77537;BME280;67783;51.656;16.106;2024-03-23T15:29:04;100694.99;;;9.26;61.27
77537;BME280;67783;51.656;16.106;2024-03-23T15:32:17;100694.22;;;9.24;61.94
77537;BME280;67783;51.656;16.106;2024-03-23T15:35:19;100701.82;;;9.18;61.74
77537;BME280;67783;51.656;16.106;2024-03-23T15:38:32;100699.65;;;9.10;61.05
77537;BME280;67783;51.656;16.106;2024-03-23T15:41:34;100707.87;;;9.07;61.52
77537;BME280;67783;51.656;16.106;2024-03-23T15:44:37;100695.77;;;9.02;61.42
77537;BME280;67783;51.656;16.106;2024-03-23T15:47:39;100696.34;;;9.07;61.59
77537;BME280;67783;51.656;16.106;2024-03-23T15:50:40;100708.63;;;9.09;61.44
77537;BME280;67783;51.656;16.106;2024-03-23T15:53:51;100721.23;;;9.07;60.32
77537;BME280;67783;51.656;16.106;2024-03-23T15:56:58;100720.19;;;9.10;61.11
77537;BME280;67783;51.656;16.106;2024-03-23T15:59:59;100723.17;;;9.05;60.96
77537;BME280;67783;51.656;16.106;2024-03-23T16:03:01;100718.46;;;9.09;61.02
77537;BME280;67783;51.656;16.106;2024-03-23T16:06:04;100729.38;;;9.06;60.90
77537;BME280;67783;51.656;16.106;2024-03-23T16:09:12;100731.49;;;9.01;60.29
77537;BME280;67783;51.656;16.106;2024-03-23T16:12:15;100755.46;;;9.02;60.78
77537;BME280;67783;51.656;16.106;2024-03-23T16:15:18;100748.99;;;8.92;60.72
77537;BME280;67783;51.656;16.106;2024-03-23T16:18:19;100755.64;;;8.99;60.99
77537;BME280;67783;51.656;16.106;2024-03-23T16:21:21;100733.52;;;8.97;60.95
77537;BME280;67783;51.656;16.106;2024-03-23T16:24:33;100730.07;;;8.95;60.17
77537;BME280;67783;51.656;16.106;2024-03-23T16:27:34;100736.40;;;8.94;60.96
77537;BME280;67783;51.656;16.106;2024-03-23T16:30:36;100745.58;;;8.90;60.86
77537;BME280;67783;51.656;16.106;2024-03-23T16:33:38;100739.08;;;8.94;61.17
77537;BME280;67783;51.656;16.106;2024-03-23T16:36:39;100742.90;;;8.90;61.04
77537;BME280;67783;51.656;16.106;2024-03-23T16:39:41;100739.16;;;8.93;61.14
77537;BME280;67783;51.656;16.106;2024-03-23T16:42:42;100741.17;;;8.89;61.13
77537;BME280;67783;51.656;16.106;2024-03-23T16:46:03;100755.40;;;8.90;60.85
77537;BME280;67783;51.656;16.106;2024-03-23T16:49:01;100755.20;;;8.93;61.22